createdAt,value
2023-11-25T00:01:32.243Z,94.12
2023-11-25T00:04:54.115Z,94.18
2023-11-25T00:08:17.474Z,94.54
2023-11-25T00:11:38.905Z,94.79
2023-11-25T00:15:00.391Z,95.33
2023-11-25T00:18:22.484Z,95.22
2023-11-25T00:21:44.082Z,95.60
2023-11-25T00:25:09.911Z,96.04
2023-11-25T00:28:32.206Z,96.71
2023-11-25T00:31:56.252Z,95.29
2023-11-25T00:35:17.953Z,95.86
2023-11-25T00:38:39.837Z,96.07
2023-11-25T00:42:05.399Z,96.12
2023-11-25T00:45:28.018Z,96.48
2023-11-25T00:48:50.393Z,96.34
2023-11-25T00:52:12.075Z,96.09
2023-11-25T00:55:33.946Z,96.26
2023-11-25T00:58:57.774Z,96.78
2023-11-25T01:02:19.197Z,96.43
2023-11-25T01:05:41.005Z,96.63
2023-11-25T01:09:02.343Z,96.73
2023-11-25T01:12:24.180Z,96.61
2023-11-25T01:15:47.411Z,97.27
2023-11-25T01:19:09.416Z,96.39
2023-11-25T01:22:31.087Z,96.32
2023-11-25T01:25:53.130Z,96.83
2023-11-25T01:29:14.818Z,96.46
2023-11-25T01:32:37.965Z,96.22
2023-11-25T01:36:00.311Z,96.16
2023-11-25T01:39:22.133Z,95.36
2023-11-25T01:42:43.951Z,94.76
2023-11-25T01:46:08.129Z,95.14
2023-11-25T01:49:31.248Z,95.40
2023-11-25T01:52:54.630Z,95.98
2023-11-25T01:56:16.485Z,95.18
2023-11-25T01:59:38.553Z,95.28
2023-11-25T02:03:00.108Z,95.27
2023-11-25T02:06:24.469Z,95.46
2023-11-25T02:09:45.925Z,94.66
2023-11-25T02:13:09.586Z,95.55
2023-11-25T02:16:31.085Z,94.65
2023-11-25T02:19:54.960Z,94.51
2023-11-25T02:23:23.613Z,94.14
2023-11-25T02:26:45.344Z,93.79
2023-11-25T02:30:09.385Z,94.45
2023-11-25T02:33:35.408Z,94.56
2023-11-25T02:36:56.891Z,94.85
2023-11-25T02:40:19.699Z,94.71
2023-11-25T02:43:42.238Z,94.19
2023-11-25T02:47:06.019Z,94.01
2023-11-25T02:50:28.661Z,94.29
2023-11-25T02:53:51.466Z,94.24
2023-11-25T02:57:20.107Z,93.85
2023-11-25T03:00:42.031Z,93.72
2023-11-25T03:04:06.795Z,94.67
2023-11-25T03:07:30.667Z,94.14
2023-11-25T03:10:52.406Z,93.50
2023-11-25T03:14:16.553Z,93.80
2023-11-25T03:17:38.204Z,93.72
2023-11-25T03:20:59.495Z,93.88
2023-11-25T03:24:22.773Z,93.68
2023-11-25T03:27:44.132Z,94.58
2023-11-25T03:31:08.655Z,94.07
2023-11-25T03:34:31.379Z,94.78
2023-11-25T03:37:53.227Z,95.28
2023-11-25T03:41:14.865Z,95.42
2023-11-25T03:44:38.071Z,94.63
2023-11-25T03:48:01.772Z,95.06
2023-11-25T03:51:23.663Z,95.36
2023-11-25T03:54:45.331Z,95.81
2023-11-25T03:58:07.060Z,95.64
2023-11-25T04:01:28.532Z,95.92
2023-11-25T04:04:51.691Z,95.99
2023-11-25T04:08:13.344Z,94.41
2023-11-25T04:11:34.611Z,94.51
2023-11-25T04:14:56.400Z,94.77
2023-11-25T04:18:17.718Z,95.79
2023-11-25T04:21:42.929Z,95.77
2023-11-25T04:25:07.060Z,95.84
2023-11-25T04:28:29.123Z,95.63
2023-11-25T04:31:51.900Z,95.15
2023-11-25T04:35:14.798Z,94.99
2023-11-25T04:38:37.494Z,94.11
2023-11-25T04:41:59.301Z,93.90
2023-11-25T04:45:21.765Z,94.18
2023-11-25T04:48:43.308Z,94.52
2023-11-25T04:52:05.757Z,95.03
2023-11-25T04:55:29.410Z,95.41
2023-11-25T04:58:51.001Z,95.92
2023-11-25T05:02:12.477Z,96.00
2023-11-25T05:05:34.365Z,96.34
2023-11-25T05:08:55.634Z,96.29
2023-11-25T05:12:20.708Z,96.00
2023-11-25T05:15:43.008Z,96.54
2023-11-25T05:19:04.914Z,95.92
2023-11-25T05:22:28.627Z,96.30
2023-11-25T05:25:50.541Z,96.22
2023-11-25T05:29:13.717Z,95.41
2023-11-25T05:32:34.994Z,95.61
2023-11-25T05:35:57.002Z,95.24
2023-11-25T05:39:21.639Z,95.26
2023-11-25T05:42:49.271Z,95.14
2023-11-25T05:46:22.516Z,95.12
2023-11-25T05:49:44.496Z,95.50
2023-11-25T05:53:07.413Z,96.52
2023-11-25T05:56:29.013Z,96.97
2023-11-25T05:59:50.405Z,97.26
2023-11-25T06:03:13.070Z,98.44
2023-11-25T06:06:34.636Z,99.48
2023-11-25T06:09:56.080Z,100.00
2023-11-25T06:13:17.746Z,100.00
2023-11-25T06:16:42.837Z,100.00
2023-11-25T06:20:06.924Z,100.00
2023-11-25T06:23:28.523Z,100.00
2023-11-25T06:26:51.261Z,100.00
2023-11-25T06:30:13.841Z,100.00
2023-11-25T06:33:37.186Z,100.00
2023-11-25T06:37:00.547Z,100.00
2023-11-25T06:40:22.018Z,100.00
2023-11-25T06:43:45.138Z,100.00
2023-11-25T06:47:06.953Z,100.00
2023-11-25T06:50:29.630Z,100.00
2023-11-25T06:53:52.130Z,100.00
2023-11-25T06:57:13.522Z,100.00
2023-11-25T07:00:34.970Z,100.00
2023-11-25T07:03:56.955Z,100.00
2023-11-25T07:07:18.480Z,100.00
2023-11-25T07:10:41.476Z,100.00
2023-11-25T07:14:03.735Z,100.00
2023-11-25T07:17:25.576Z,100.00
2023-11-25T07:20:48.121Z,99.73
2023-11-25T07:24:10.407Z,99.63
2023-11-25T07:27:34.116Z,98.89
2023-11-25T07:30:55.759Z,98.70
2023-11-25T07:34:17.110Z,98.78
2023-11-25T07:37:38.668Z,99.24
2023-11-25T07:41:01.107Z,99.77
2023-11-25T07:44:25.045Z,98.79
2023-11-25T07:47:47.203Z,98.25
2023-11-25T07:51:08.681Z,98.03
2023-11-25T07:54:29.933Z,98.94
2023-11-25T07:57:51.724Z,98.31
2023-11-25T08:01:15.006Z,98.10
2023-11-25T08:04:36.709Z,98.02
2023-11-25T08:07:58.439Z,98.31
2023-11-25T08:11:24.513Z,98.68
2023-11-25T08:14:45.777Z,98.36
2023-11-25T08:18:08.476Z,98.57
2023-11-25T08:21:29.979Z,98.26
2023-11-25T08:24:53.870Z,99.64
2023-11-25T08:28:15.579Z,99.78
2023-11-25T08:31:37.066Z,99.47
2023-11-25T08:35:00.778Z,99.66
2023-11-25T08:38:22.425Z,99.44
2023-11-25T08:41:44.963Z,98.17
2023-11-25T08:45:07.972Z,98.35
2023-11-25T08:48:31.074Z,97.94
2023-11-25T08:51:54.048Z,98.64
2023-11-25T08:55:19.613Z,98.11
2023-11-25T08:58:42.507Z,97.93
2023-11-25T09:02:06.189Z,97.89
2023-11-25T09:05:29.766Z,97.08
2023-11-25T09:08:52.836Z,96.14
2023-11-25T09:12:15.876Z,96.62
2023-11-25T09:15:41.985Z,96.88
2023-11-25T09:19:03.979Z,96.56
2023-11-25T09:22:25.718Z,97.00
2023-11-25T09:25:48.426Z,95.71
2023-11-25T09:29:10.006Z,96.08
2023-11-25T09:32:31.276Z,95.32
2023-11-25T09:35:52.780Z,94.99
2023-11-25T09:39:15.884Z,95.56
2023-11-25T09:42:38.683Z,94.96
2023-11-25T09:46:02.942Z,95.26
2023-11-25T09:49:24.686Z,95.16
2023-11-25T09:52:51.308Z,94.34
2023-11-25T09:56:14.927Z,93.54
2023-11-25T09:59:37.890Z,93.10
2023-11-25T10:03:01.931Z,93.26
2023-11-25T10:06:27.215Z,93.04
2023-11-25T10:09:49.025Z,93.31
2023-11-25T10:13:16.029Z,93.48
2023-11-25T10:16:43.135Z,93.55
2023-11-25T10:20:10.685Z,92.59
2023-11-25T10:23:32.297Z,92.61
2023-11-25T10:26:55.476Z,93.30
2023-11-25T10:30:17.352Z,93.53
2023-11-25T10:33:41.821Z,93.94
2023-11-25T10:37:05.910Z,93.22
2023-11-25T10:40:28.555Z,93.53
2023-11-25T10:43:50.308Z,93.55
2023-11-25T10:47:30.660Z,92.72
2023-11-25T10:50:53.755Z,93.54
2023-11-25T10:54:20.106Z,93.53
2023-11-25T10:57:43.019Z,94.13
2023-11-25T11:01:04.979Z,93.81
2023-11-25T11:04:34.028Z,93.43
2023-11-25T11:08:02.820Z,93.57
2023-11-25T11:11:32.954Z,93.73
2023-11-25T11:15:01.290Z,93.11
2023-11-25T11:18:26.254Z,93.48
2023-11-25T11:21:53.598Z,92.90
2023-11-25T11:25:24.927Z,93.66
2023-11-25T11:28:50.823Z,93.11
2023-11-25T11:32:15.868Z,93.17
2023-11-25T11:35:39.566Z,92.65
2023-11-25T11:39:01.281Z,93.16
2023-11-25T11:42:35.538Z,93.87
2023-11-25T11:45:57.167Z,94.18
2023-11-25T11:49:20.030Z,94.13
2023-11-25T11:53:08.315Z,94.35
2023-11-25T11:57:03.487Z,93.17
2023-11-25T12:00:30.665Z,93.52
2023-11-25T12:03:54.904Z,93.60
2023-11-25T12:07:16.721Z,93.33
2023-11-25T12:10:39.692Z,93.14
2023-11-25T12:14:01.726Z,93.69
2023-11-25T12:17:25.214Z,93.38
2023-11-25T12:20:46.942Z,93.68
2023-11-25T12:24:14.226Z,92.85
2023-11-25T12:27:37.056Z,92.36
2023-11-25T12:30:58.479Z,92.76
2023-11-25T12:34:21.602Z,94.03
2023-11-25T12:37:44.666Z,94.33
2023-11-25T12:41:12.100Z,94.41
2023-11-25T12:44:51.602Z,94.14
2023-11-25T12:48:16.842Z,94.46
2023-11-25T12:51:44.968Z,95.12
2023-11-25T12:55:08.406Z,95.11
2023-11-25T12:58:30.022Z,95.27
2023-11-25T13:01:51.956Z,94.89
2023-11-25T13:05:24.979Z,94.33
2023-11-25T13:08:47.759Z,94.15
2023-11-25T13:12:09.519Z,94.00
2023-11-25T13:15:30.788Z,93.24
2023-11-25T13:18:52.837Z,93.59
2023-11-25T13:22:14.328Z,94.46
2023-11-25T13:25:37.037Z,94.18
2023-11-25T13:28:58.690Z,94.63
2023-11-25T13:32:20.184Z,94.57
2023-11-25T13:35:41.774Z,95.36
2023-11-25T13:39:05.512Z,94.37
2023-11-25T13:42:28.706Z,93.22
2023-11-25T13:45:50.976Z,93.40
2023-11-25T13:49:13.624Z,93.87
2023-11-25T13:52:35.225Z,93.35
2023-11-25T13:55:56.380Z,93.88
2023-11-25T13:59:19.023Z,94.21
2023-11-25T14:02:41.010Z,94.07
2023-11-25T14:06:02.672Z,94.40
2023-11-25T14:09:24.916Z,93.58
2023-11-25T14:12:46.386Z,93.45
2023-11-25T14:16:10.805Z,95.04
2023-11-25T14:19:32.270Z,94.95
2023-11-25T14:22:54.129Z,95.55
2023-11-25T14:26:15.945Z,95.04
2023-11-25T14:29:37.678Z,95.38
2023-11-25T14:33:00.700Z,95.75
2023-11-25T14:36:22.987Z,95.72
2023-11-25T14:39:51.211Z,95.62
2023-11-25T14:43:16.450Z,95.50
2023-11-25T14:46:37.989Z,94.91
2023-11-25T14:50:01.360Z,95.21
2023-11-25T14:53:22.939Z,95.56
2023-11-25T14:56:46.460Z,95.32
2023-11-25T15:00:11.581Z,96.05
2023-11-25T15:03:33.705Z,96.07
2023-11-25T15:06:57.487Z,96.43
2023-11-25T15:10:18.824Z,97.04
2023-11-25T15:13:40.721Z,97.45
2023-11-25T15:17:05.352Z,96.56
2023-11-25T15:20:27.154Z,96.66
2023-11-25T15:23:49.998Z,96.84
2023-11-25T15:27:13.711Z,96.89
2023-11-25T15:30:35.901Z,96.62
2023-11-25T15:33:57.504Z,96.51
2023-11-25T15:37:18.950Z,96.76
2023-11-25T15:40:42.098Z,96.57
2023-11-25T15:44:04.525Z,96.56
2023-11-25T15:47:26.565Z,97.49
2023-11-25T15:50:48.363Z,96.69
2023-11-25T15:54:10.071Z,97.26
2023-11-25T15:57:32.957Z,96.92
2023-11-25T16:00:56.257Z,96.50
2023-11-25T16:04:19.342Z,96.77
2023-11-25T16:07:40.981Z,96.52
2023-11-25T16:11:02.790Z,96.57
2023-11-25T16:14:25.887Z,96.77
2023-11-25T16:17:47.396Z,96.43
2023-11-25T16:21:09.076Z,96.70
2023-11-25T16:24:33.038Z,96.50
2023-11-25T16:27:54.487Z,96.53
2023-11-25T16:31:17.345Z,96.81
2023-11-25T16:34:40.975Z,96.96
2023-11-25T16:38:02.441Z,96.61
2023-11-25T16:41:24.351Z,96.86
2023-11-25T16:44:46.667Z,96.46
2023-11-25T16:48:10.373Z,96.15
2023-11-25T16:51:32.236Z,96.34
2023-11-25T16:54:53.606Z,96.68
2023-11-25T16:58:14.791Z,96.47
2023-11-25T17:01:36.788Z,97.16
2023-11-25T17:04:59.863Z,96.89
2023-11-25T17:08:21.448Z,96.68
2023-11-25T17:11:42.670Z,96.32
2023-11-25T17:15:03.869Z,95.98
2023-11-25T17:18:25.235Z,96.20
2023-11-25T17:21:50.640Z,96.35
2023-11-25T17:25:11.924Z,96.27
2023-11-25T17:28:34.371Z,95.97
2023-11-25T17:31:55.684Z,95.85
2023-11-25T17:35:18.662Z,95.77
2023-11-25T17:38:41.506Z,96.11
2023-11-25T17:42:02.863Z,96.15
2023-11-25T17:45:24.196Z,96.38
2023-11-25T17:48:45.759Z,96.62
2023-11-25T17:52:09.043Z,96.60
2023-11-25T17:55:31.755Z,97.50
2023-11-25T17:58:53.106Z,97.39
2023-11-25T18:02:15.560Z,97.28
2023-11-25T18:05:37.841Z,97.43
2023-11-25T18:08:59.306Z,97.30
2023-11-25T18:12:21.979Z,97.37
2023-11-25T18:15:43.863Z,97.21
2023-11-25T18:19:05.156Z,96.87
2023-11-25T18:22:26.556Z,96.98
2023-11-25T18:25:47.785Z,96.05
2023-11-25T18:29:11.209Z,96.66
2023-11-25T18:32:33.101Z,96.24
2023-11-25T18:35:55.074Z,95.57
2023-11-25T18:39:16.371Z,94.76
2023-11-25T18:42:38.184Z,94.42
2023-11-25T18:46:02.453Z,94.83
2023-11-25T18:49:23.895Z,94.91
2023-11-25T18:52:45.195Z,93.71
2023-11-25T18:56:07.087Z,92.74
2023-11-25T18:59:28.595Z,91.78
2023-11-25T19:02:51.703Z,90.94
2023-11-25T19:06:13.339Z,90.00
2023-11-25T19:09:34.644Z,88.78
2023-11-25T19:12:55.893Z,88.15
2023-11-25T19:16:17.880Z,88.80
2023-11-25T19:19:40.807Z,88.08
2023-11-25T19:23:02.510Z,88.06
2023-11-25T19:26:25.961Z,87.22
2023-11-25T19:29:47.141Z,88.02
2023-11-25T19:33:09.860Z,87.58
2023-11-25T19:36:32.601Z,87.01
2023-11-25T19:39:53.828Z,86.54
2023-11-25T19:43:15.018Z,86.01
2023-11-25T19:46:36.579Z,86.17
2023-11-25T19:49:57.932Z,85.76
2023-11-25T19:53:20.687Z,85.68
2023-11-25T19:56:42.596Z,84.87
2023-11-25T20:00:05.943Z,84.42
2023-11-25T20:03:33.911Z,84.63
2023-11-25T20:06:59.283Z,84.50
2023-11-25T20:10:22.226Z,83.87
2023-11-25T20:13:43.354Z,83.89
2023-11-25T20:17:05.508Z,82.72
2023-11-25T20:20:27.415Z,83.30
2023-11-25T20:23:49.125Z,82.20
2023-11-25T20:27:12.000Z,83.00
2023-11-25T20:30:33.359Z,83.06
2023-11-25T20:33:54.712Z,82.63
2023-11-25T20:37:16.269Z,82.29
2023-11-25T20:40:37.922Z,82.96
2023-11-25T20:44:01.431Z,82.87
2023-11-25T20:47:23.420Z,83.33
2023-11-25T20:50:45.075Z,85.23
2023-11-25T20:54:09.368Z,83.73
2023-11-25T20:57:30.579Z,83.72
2023-11-25T21:00:53.355Z,83.50
2023-11-25T21:04:14.836Z,84.73
2023-11-25T21:07:36.660Z,85.37
2023-11-25T21:10:58.058Z,85.41
2023-11-25T21:14:20.215Z,82.62
2023-11-25T21:17:43.610Z,81.29
2023-11-25T21:21:05.228Z,82.35
2023-11-25T21:24:28.202Z,84.36
2023-11-25T21:27:50.530Z,85.18
2023-11-25T21:31:13.093Z,83.58
2023-11-25T21:34:36.152Z,84.07
2023-11-25T21:37:58.429Z,81.47
2023-11-25T21:41:19.971Z,81.69
2023-11-25T21:44:41.424Z,82.17
2023-11-25T21:48:03.603Z,81.14
2023-11-25T21:51:26.741Z,82.17
2023-11-25T21:54:48.164Z,82.23
2023-11-25T21:58:09.386Z,82.40
2023-11-25T22:01:30.607Z,83.35
2023-11-25T22:04:51.919Z,83.71
2023-11-25T22:08:15.025Z,83.90
2023-11-25T22:11:36.410Z,84.65
2023-11-25T22:14:57.696Z,84.58
2023-11-25T22:18:19.097Z,84.19
2023-11-25T22:21:40.483Z,85.08
2023-11-25T22:25:10.791Z,84.96
2023-11-25T22:28:32.729Z,86.03
2023-11-25T22:31:55.112Z,85.51
2023-11-25T22:35:17.655Z,84.46
2023-11-25T22:38:39.978Z,84.67
2023-11-25T22:42:02.668Z,84.03
2023-11-25T22:45:24.028Z,83.41
2023-11-25T22:48:45.499Z,83.99
2023-11-25T22:52:06.940Z,84.85
2023-11-25T22:55:29.142Z,83.49
2023-11-25T22:58:51.719Z,84.02
2023-11-25T23:02:16.084Z,83.11
2023-11-25T23:05:38.227Z,82.84
2023-11-25T23:08:59.714Z,84.17
2023-11-25T23:12:21.468Z,83.47
2023-11-25T23:15:44.208Z,83.14
2023-11-25T23:19:05.613Z,83.41
2023-11-25T23:22:27.131Z,83.42
2023-11-25T23:25:49.563Z,83.46
2023-11-25T23:29:11.177Z,82.73
2023-11-25T23:32:34.768Z,82.77
2023-11-25T23:35:56.227Z,83.38
2023-11-25T23:39:17.888Z,83.55
2023-11-25T23:42:39.956Z,82.47
2023-11-25T23:46:01.454Z,82.06
2023-11-25T23:49:24.705Z,83.25
2023-11-25T23:52:46.200Z,82.83
2023-11-25T23:56:08.609Z,81.28
2023-11-25T23:59:32.417Z,81.61
